Carsonville, Michigan
Current Conditions -  °F | °C
As of 9:55 PM on Monday 22 Dec 2014 (Local Time) from KBAX Reporting Station
Overcast Overcast  
Wind Chill: 30°   Ceiling: 9000
Heat Index: 34°   Visibility: 7mi
Dew Point: 32°   Wind: 5mph
Humidity: 93%   Direction: 110°ESE
Pressure: 29.94"   Gusts: NA
Location:  43.43°N, 82.67°W
Report Text: KBAX 230255Z AUTO 11004KT 7SM SCT075 OVC090 01/00 A2994 RMK AO2 T00100000
Loading
Personal Weather Stations






























Interactive Weather Map New forecast layout! Learn more

10-Day Weather Forecast

Advertisements
Track Severe Weather on mobile